Time;durP1;ratioP1;P1;durP2;ratioP2;P2;SDS_P1;SDS_P2;PMS_P1;PMS_P2;Temp;Humidity;BMP_temperature;BMP_pressure;BME280_temperature;BME280_humidity;BME280_pressure;Samples;Min_cycle;Max_cycle;Signal;HPM_P1;HPM_P2
2023/07/18 00:00:44;;;;;;;1.60;0.82;;;;;;;;;;5051630;28;20013;-60
2023/07/18 00:03:10;;;;;;;1.55;0.70;;;;;;;;;;5051046;28;20474;-61
2023/07/18 00:05:37;;;;;;;3.63;0.65;;;;;;;;;;5051442;28;20021;-60
2023/07/18 00:08:03;;;;;;;2.03;0.60;;;;;;;;;;5051681;28;20363;-60
2023/07/18 00:10:29;;;;;;;2.88;0.98;;;;;;;;;;5051163;28;20471;-60
2023/07/18 00:12:55;;;;;;;1.90;0.90;;;;;;;;;;5051012;28;20029;-60
2023/07/18 00:15:22;;;;;;;2.03;0.70;;;;;;;;;;5049401;28;20021;-61
2023/07/18 00:17:47;;;;;;;1.52;0.80;;;;;;;;;;5051761;28;20451;-60
2023/07/18 00:20:16;;;;;;;1.08;0.40;;;;;;;;;;5050179;28;20021;-60
2023/07/18 00:22:43;;;;;;;2.40;1.10;;;;;;;;;;5051026;28;20080;-60
2023/07/18 00:25:13;;;;;;;1.65;0.85;;;;;;;;;;5051107;28;20029;-60
2023/07/18 00:27:40;;;;;;;2.47;0.75;;;;;;;;;;5051570;28;20045;-60
2023/07/18 00:30:13;;;;;;;3.25;1.02;;;;;;;;;;5051440;28;20164;-60
2023/07/18 00:32:39;;;;;;;2.13;0.80;;;;;;;;;;5051522;28;20028;-60
2023/07/18 00:35:06;;;;;;;3.03;1.08;;;;;;;;;;5049680;28;20025;-60
2023/07/18 00:37:32;;;;;;;2.30;1.10;;;;;;;;;;5051195;28;20021;-60
2023/07/18 00:39:58;;;;;;;1.50;0.80;;;;;;;;;;5051587;28;20029;-60
2023/07/18 00:42:24;;;;;;;1.35;0.63;;;;;;;;;;5051158;28;20032;-60
2023/07/18 00:44:51;;;;;;;5.35;1.33;;;;;;;;;;5050942;28;20390;-60
2023/07/18 00:47:18;;;;;;;3.00;0.88;;;;;;;;;;5051115;28;20485;-60
2023/07/18 00:49:44;;;;;;;2.20;0.95;;;;;;;;;;5051285;28;20044;-60
2023/07/18 00:52:10;;;;;;;2.67;0.95;;;;;;;;;;5050964;28;20092;-60
2023/07/18 00:54:37;;;;;;;2.10;1.00;;;;;;;;;;5050571;28;20021;-60
2023/07/18 00:57:03;;;;;;;1.80;1.10;;;;;;;;;;5051090;28;20211;-60
2023/07/18 00:59:30;;;;;;;0.90;0.60;;;;;;;;;;5051231;28;20127;-60
2023/07/18 01:01:56;;;;;;;2.55;1.23;;;;;;;;;;5050969;28;20180;-60
2023/07/18 01:04:22;;;;;;;1.65;1.00;;;;;;;;;;5050049;28;20078;-60
2023/07/18 01:06:48;;;;;;;2.15;0.90;;;;;;;;;;5051329;28;20128;-60
2023/07/18 01:09:14;;;;;;;2.58;1.02;;;;;;;;;;5055022;28;20029;-60
2023/07/18 01:11:41;;;;;;;3.03;1.60;;;;;;;;;;5054764;28;20013;-60
2023/07/18 01:14:09;;;;;;;2.63;1.13;;;;;;;;;;5054157;28;20025;-60
2023/07/18 01:16:35;;;;;;;2.55;1.00;;;;;;;;;;5054721;28;20017;-60
2023/07/18 01:19:01;;;;;;;1.75;0.88;;;;;;;;;;5054760;28;20132;-60
2023/07/18 01:21:27;;;;;;;1.95;0.80;;;;;;;;;;5054398;28;20029;-60
2023/07/18 01:23:53;;;;;;;2.15;0.90;;;;;;;;;;5054005;28;20068;-60
2023/07/18 01:26:19;;;;;;;1.88;0.98;;;;;;;;;;5054197;28;20401;-60
2023/07/18 01:28:45;;;;;;;2.58;1.10;;;;;;;;;;5054627;28;20108;-60
2023/07/18 01:31:11;;;;;;;2.30;0.98;;;;;;;;;;5053100;28;20017;-60
2023/07/18 01:33:37;;;;;;;2.65;1.40;;;;;;;;;;5053706;28;20485;-60
2023/07/18 01:36:03;;;;;;;1.13;0.73;;;;;;;;;;5054375;28;20020;-60
2023/07/18 01:38:29;;;;;;;3.13;1.42;;;;;;;;;;5054681;28;20102;-60
2023/07/18 01:40:56;;;;;;;1.90;0.80;;;;;;;;;;5054047;28;20072;-60
2023/07/18 01:43:25;;;;;;;1.15;0.50;;;;;;;;;;5053573;28;20025;-60
2023/07/18 01:45:51;;;;;;;2.80;1.48;;;;;;;;;;5053919;28;20029;-60
2023/07/18 01:48:18;;;;;;;4.38;1.13;;;;;;;;;;5054105;28;20033;-60
2023/07/18 01:50:44;;;;;;;2.70;0.73;;;;;;;;;;5053861;28;20435;-60
2023/07/18 01:53:13;;;;;;;2.03;0.90;;;;;;;;;;5053500;28;20158;-60
2023/07/18 01:55:39;;;;;;;1.83;0.90;;;;;;;;;;5053839;28;20017;-60
2023/07/18 01:58:05;;;;;;;2.83;1.10;;;;;;;;;;5053978;28;20021;-60
2023/07/18 02:00:32;;;;;;;1.35;0.73;;;;;;;;;;5053673;28;20025;-60
2023/07/18 02:02:58;;;;;;;2.90;1.13;;;;;;;;;;5053094;28;20025;-60
2023/07/18 02:05:25;;;;;;;2.28;1.05;;;;;;;;;;5053806;28;20056;-60
2023/07/18 02:07:51;;;;;;;1.50;0.82;;;;;;;;;;5054000;28;20021;-60
2023/07/18 02:10:19;;;;;;;2.35;1.17;;;;;;;;;;5053800;28;20044;-60
2023/07/18 02:12:46;;;;;;;2.70;1.20;;;;;;;;;;5053105;28;20025;-60
2023/07/18 02:15:15;;;;;;;1.75;0.82;;;;;;;;;;5052965;28;20153;-60
2023/07/18 02:17:42;;;;;;;1.40;0.73;;;;;;;;;;5053997;28;20379;-60
2023/07/18 02:20:09;;;;;;;4.07;0.88;;;;;;;;;;5053199;28;20029;-60
2023/07/18 02:22:37;;;;;;;1.48;0.82;;;;;;;;;;5053448;28;20029;-60
2023/07/18 02:25:03;;;;;;;2.15;0.98;;;;;;;;;;5053127;28;20036;-60
2023/07/18 02:27:30;;;;;;;2.28;0.90;;;;;;;;;;5053161;28;20043;-60
2023/07/18 02:29:56;;;;;;;1.75;0.85;;;;;;;;;;5053472;28;20490;-60
2023/07/18 02:32:22;;;;;;;3.03;1.17;;;;;;;;;;5053287;28;20143;-60
2023/07/18 02:34:48;;;;;;;1.45;0.77;;;;;;;;;;5052774;28;20470;-60
2023/07/18 02:37:14;;;;;;;1.33;0.60;;;;;;;;;;5051883;28;20390;-60
2023/07/18 02:39:41;;;;;;;1.40;0.82;;;;;;;;;;5053433;28;20105;-60
2023/07/18 02:42:07;;;;;;;1.83;0.95;;;;;;;;;;5053089;28;20120;-60
2023/07/18 02:44:33;;;;;;;2.55;1.20;;;;;;;;;;5052134;28;20440;-60
2023/07/18 02:46:59;;;;;;;2.30;1.05;;;;;;;;;;5051981;28;20021;-60
2023/07/18 02:49:25;;;;;;;1.58;0.80;;;;;;;;;;5053086;28;20104;-60
2023/07/18 02:51:51;;;;;;;1.50;0.75;;;;;;;;;;5053035;28;20017;-60
2023/07/18 02:54:17;;;;;;;1.55;0.85;;;;;;;;;;5052412;28;20040;-60
2023/07/18 02:56:43;;;;;;;3.10;0.95;;;;;;;;;;5052755;28;20021;-60
2023/07/18 02:59:09;;;;;;;1.70;0.70;;;;;;;;;;5052710;28;20477;-60
2023/07/18 03:01:35;;;;;;;1.00;0.63;;;;;;;;;;5052775;28;20025;-60
2023/07/18 03:04:01;;;;;;;3.22;0.82;;;;;;;;;;5052092;28;20064;-60
2023/07/18 03:06:27;;;;;;;2.60;0.93;;;;;;;;;;5052231;28;20423;-60
2023/07/18 03:08:53;;;;;;;2.15;1.02;;;;;;;;;;5052815;28;20048;-60
2023/07/18 03:11:20;;;;;;;1.95;0.70;;;;;;;;;;5052434;28;20017;-60
2023/07/18 03:13:46;;;;;;;2.13;0.70;;;;;;;;;;5051656;28;20021;-60
2023/07/18 03:16:11;;;;;;;1.95;0.75;;;;;;;;;;5052521;28;20063;-60
2023/07/18 03:18:38;;;;;;;2.22;0.82;;;;;;;;;;5052569;28;20025;-60
2023/07/18 03:21:04;;;;;;;2.20;0.98;;;;;;;;;;5051133;28;20017;-60
2023/07/18 03:23:30;;;;;;;4.28;0.75;;;;;;;;;;5052012;28;20025;-60
2023/07/18 03:25:56;;;;;;;4.30;0.70;;;;;;;;;;5050792;28;20059;-60
2023/07/18 03:28:22;;;;;;;3.83;0.80;;;;;;;;;;5032323;28;20018;-60
2023/07/18 03:30:48;;;;;;;2.22;1.10;;;;;;;;;;5036728;28;20017;-60
2023/07/18 03:33:15;;;;;;;1.55;0.70;;;;;;;;;;5051693;28;20043;-60
2023/07/18 03:35:41;;;;;;;2.55;0.85;;;;;;;;;;5052020;28;20116;-60
2023/07/18 03:38:07;;;;;;;1.65;0.80;;;;;;;;;;5052427;28;20060;-60
2023/07/18 03:40:33;;;;;;;1.88;0.70;;;;;;;;;;5050547;28;20059;-60
2023/07/18 03:42:59;;;;;;;1.80;0.85;;;;;;;;;;5051341;28;20025;-60
2023/07/18 03:45:25;;;;;;;1.80;0.98;;;;;;;;;;5046663;28;20124;-60
2023/07/18 03:47:51;;;;;;;1.08;0.55;;;;;;;;;;5045945;28;20040;-60
2023/07/18 03:50:18;;;;;;;2.88;1.17;;;;;;;;;;5051870;28;20143;-60
2023/07/18 03:52:44;;;;;;;1.83;1.05;;;;;;;;;;5051576;28;20029;-60
2023/07/18 03:55:10;;;;;;;3.05;1.48;;;;;;;;;;5051565;28;20542;-60
2023/07/18 03:57:35;;;;;;;2.63;1.40;;;;;;;;;;5050240;28;20032;-60
2023/07/18 04:00:12;;;;;;;2.53;1.63;;;;;;;;;;5038939;28;20029;-60
2023/07/18 04:02:38;;;;;;;6.68;1.60;;;;;;;;;;5046533;28;20028;-60
2023/07/18 04:05:05;;;;;;;2.38;1.13;;;;;;;;;;5045789;28;20029;-60
2023/07/18 04:07:31;;;;;;;5.38;2.15;;;;;;;;;;5051565;28;20025;-60
2023/07/18 04:09:57;;;;;;;2.90;1.70;;;;;;;;;;5051879;28;20463;-60
2023/07/18 04:12:26;;;;;;;5.45;2.10;;;;;;;;;;5051378;28;20036;-60
2023/07/18 04:14:52;;;;;;;3.40;2.63;;;;;;;;;;5051124;28;20474;-60
2023/07/18 04:17:18;;;;;;;4.13;2.05;;;;;;;;;;5041327;28;20107;-60
2023/07/18 04:19:44;;;;;;;3.63;2.05;;;;;;;;;;5049261;28;20060;-60
2023/07/18 04:22:10;;;;;;;3.95;2.08;;;;;;;;;;5048356;28;20467;-60
2023/07/18 04:24:36;;;;;;;2.83;2.05;;;;;;;;;;5050431;28;20029;-60
2023/07/18 04:27:02;;;;;;;4.72;2.92;;;;;;;;;;5051392;28;20358;-60
2023/07/18 04:29:28;;;;;;;8.15;2.38;;;;;;;;;;5051660;28;20337;-60
2023/07/18 04:31:54;;;;;;;4.78;2.45;;;;;;;;;;5046416;28;20132;-61
2023/07/18 04:34:20;;;;;;;3.40;2.10;;;;;;;;;;5049653;28;20039;-60
2023/07/18 04:36:46;;;;;;;2.45;1.50;;;;;;;;;;5051251;28;20025;-60
2023/07/18 04:39:12;;;;;;;4.90;2.35;;;;;;;;;;5050668;28;20030;-60
2023/07/18 04:41:38;;;;;;;3.53;2.10;;;;;;;;;;5051501;28;20025;-61
2023/07/18 04:44:04;;;;;;;3.35;2.13;;;;;;;;;;5053283;28;20021;-61
2023/07/18 04:46:30;;;;;;;3.33;2.10;;;;;;;;;;5043487;28;20032;-61
2023/07/18 04:48:57;;;;;;;3.58;2.00;;;;;;;;;;5052415;28;20021;-61
2023/07/18 04:51:24;;;;;;;4.70;2.25;;;;;;;;;;5054988;28;20315;-61
2023/07/18 04:53:50;;;;;;;3.70;1.98;;;;;;;;;;5054982;28;20136;-61
2023/07/18 04:56:16;;;;;;;5.90;1.95;;;;;;;;;;5054363;28;20055;-61
2023/07/18 04:58:42;;;;;;;2.70;1.83;;;;;;;;;;5029009;28;20585;-61
2023/07/18 05:01:09;;;;;;;3.05;1.70;;;;;;;;;;5046421;28;20034;-61
2023/07/18 05:03:36;;;;;;;2.88;1.83;;;;;;;;;;5048788;28;20506;-60
2023/07/18 05:06:02;;;;;;;3.75;1.48;;;;;;;;;;5047762;28;20033;-60
2023/07/18 05:08:28;;;;;;;2.65;1.63;;;;;;;;;;5040599;28;20036;-60
2023/07/18 05:11:00;;;;;;;3.22;1.70;;;;;;;;;;5039632;28;20240;-60
2023/07/18 05:13:28;;;;;;;2.25;1.17;;;;;;;;;;5048824;28;20075;-60
2023/07/18 05:15:54;;;;;;;2.65;1.55;;;;;;;;;;5050224;28;20267;-60
2023/07/18 05:18:20;;;;;;;3.22;1.52;;;;;;;;;;5052076;28;20466;-60
2023/07/18 05:20:46;;;;;;;2.60;1.50;;;;;;;;;;5042871;28;20117;-60
2023/07/18 05:23:12;;;;;;;2.13;1.55;;;;;;;;;;5047354;28;20028;-60
2023/07/18 05:25:38;;;;;;;2.72;1.42;;;;;;;;;;5045063;28;20429;-60
2023/07/18 05:28:04;;;;;;;3.15;1.63;;;;;;;;;;5050902;28;20471;-60
2023/07/18 05:30:30;;;;;;;2.70;1.23;;;;;;;;;;5049508;28;20059;-60
2023/07/18 05:32:56;;;;;;;3.30;1.90;;;;;;;;;;5049297;28;20068;-60
2023/07/18 05:35:22;;;;;;;2.95;1.92;;;;;;;;;;5046455;28;20044;-60
2023/07/18 05:37:48;;;;;;;3.30;2.10;;;;;;;;;;5044829;28;20477;-60
2023/07/18 05:40:15;;;;;;;1.45;0.88;;;;;;;;;;5049441;28;20044;-60
2023/07/18 05:42:41;;;;;;;3.38;1.38;;;;;;;;;;5050319;28;20455;-60
2023/07/18 05:45:08;;;;;;;3.05;1.58;;;;;;;;;;5048994;28;20463;-60
2023/07/18 05:47:34;;;;;;;5.57;1.83;;;;;;;;;;5045968;28;20035;-61
2023/07/18 05:50:01;;;;;;;3.95;2.30;;;;;;;;;;5047214;28;20049;-61
2023/07/18 05:52:27;;;;;;;6.53;1.95;;;;;;;;;;5048348;28;20025;-60
2023/07/18 05:54:53;;;;;;;2.88;1.65;;;;;;;;;;5039357;28;20115;-61
2023/07/18 05:57:19;;;;;;;3.13;2.05;;;;;;;;;;5050313;28;20036;-61
2023/07/18 05:59:45;;;;;;;3.42;1.88;;;;;;;;;;5037299;28;20096;-61
2023/07/18 06:02:11;;;;;;;2.42;1.70;;;;;;;;;;5037758;28;20389;-61
2023/07/18 06:04:37;;;;;;;2.95;1.95;;;;;;;;;;5044711;28;20060;-60
2023/07/18 06:07:04;;;;;;;3.47;1.98;;;;;;;;;;5050911;28;20088;-61
2023/07/18 06:09:30;;;;;;;3.80;2.17;;;;;;;;;;5052292;28;20021;-60
2023/07/18 06:11:56;;;;;;;3.53;1.83;;;;;;;;;;5046207;28;20070;-61
2023/07/18 06:14:22;;;;;;;5.07;1.98;;;;;;;;;;5048248;28;20037;-61
2023/07/18 06:16:48;;;;;;;2.95;1.80;;;;;;;;;;5051679;28;20032;-61
2023/07/18 06:19:15;;;;;;;3.35;2.20;;;;;;;;;;5052530;28;20047;-61
2023/07/18 06:21:41;;;;;;;3.20;2.17;;;;;;;;;;5050710;28;20025;-61
2023/07/18 06:24:07;;;;;;;3.15;2.03;;;;;;;;;;5041708;28;20112;-61
2023/07/18 06:26:33;;;;;;;3.58;2.03;;;;;;;;;;5053239;28;20475;-61
2023/07/18 06:28:59;;;;;;;3.08;1.40;;;;;;;;;;5052715;28;20443;-61
2023/07/18 06:31:25;;;;;;;3.10;1.85;;;;;;;;;;5052830;28;20136;-61
2023/07/18 06:33:51;;;;;;;4.07;1.98;;;;;;;;;;5053182;28;20204;-60
2023/07/18 06:36:17;;;;;;;2.75;1.70;;;;;;;;;;5053259;28;20024;-61
2023/07/18 06:38:44;;;;;;;2.70;1.40;;;;;;;;;;5053639;28;20082;-61
2023/07/18 06:41:12;;;;;;;2.72;1.45;;;;;;;;;;5041639;28;20025;-61
2023/07/18 06:43:37;;;;;;;2.70;1.52;;;;;;;;;;5051560;28;20052;-61
2023/07/18 06:46:03;;;;;;;3.78;1.67;;;;;;;;;;5033602;28;20041;-61
2023/07/18 06:48:29;;;;;;;2.58;1.42;;;;;;;;;;5052110;28;20481;-61
2023/07/18 06:50:59;;;;;;;7.05;1.65;;;;;;;;;;5052770;28;20417;-61
2023/07/18 06:53:25;;;;;;;3.30;1.40;;;;;;;;;;5052721;28;20351;-61
2023/07/18 06:55:53;;;;;;;2.72;1.40;;;;;;;;;;5052838;28;20060;-61
2023/07/18 06:58:19;;;;;;;2.15;1.45;;;;;;;;;;5051183;28;20036;-61
2023/07/18 07:00:46;;;;;;;3.50;1.75;;;;;;;;;;5038081;28;20043;-61
2023/07/18 07:03:12;;;;;;;2.15;1.48;;;;;;;;;;5052395;28;20025;-61
2023/07/18 07:05:39;;;;;;;4.78;2.00;;;;;;;;;;5047821;28;20028;-61
2023/07/18 07:08:09;;;;;;;2.38;0.95;;;;;;;;;;5044889;28;20037;-61
2023/07/18 07:10:38;;;;;;;2.22;1.27;;;;;;;;;;5052621;28;20052;-61
2023/07/18 07:13:04;;;;;;;3.90;1.48;;;;;;;;;;5052298;28;20029;-61
2023/07/18 07:15:31;;;;;;;2.92;1.55;;;;;;;;;;5052194;28;20488;-61
2023/07/18 07:17:57;;;;;;;4.05;1.50;;;;;;;;;;5051208;28;20032;-61
2023/07/18 07:20:24;;;;;;;2.40;1.35;;;;;;;;;;5052095;28;20025;-61
2023/07/18 07:22:51;;;;;;;3.20;1.25;;;;;;;;;;5045055;28;20399;-61
2023/07/18 07:25:17;;;;;;;7.45;1.45;;;;;;;;;;5050978;28;20065;-61
2023/07/18 07:27:44;;;;;;;3.33;1.20;;;;;;;;;;5052452;28;20021;-61
2023/07/18 07:30:15;;;;;;;2.33;1.35;;;;;;;;;;5033189;28;20180;-61
2023/07/18 07:32:41;;;;;;;1.90;0.95;;;;;;;;;;5051644;28;20028;-61
2023/07/18 07:35:08;;;;;;;2.45;1.48;;;;;;;;;;5047930;28;20040;-61
2023/07/18 07:37:34;;;;;;;3.00;1.25;;;;;;;;;;5051185;28;20040;-61
2023/07/18 07:40:00;;;;;;;2.80;1.35;;;;;;;;;;5052360;28;20180;-61
2023/07/18 07:42:26;;;;;;;1.75;1.10;;;;;;;;;;5050940;28;20055;-61
2023/07/18 07:44:52;;;;;;;2.30;1.30;;;;;;;;;;5050882;28;20025;-61
2023/07/18 07:47:18;;;;;;;2.70;1.25;;;;;;;;;;5048968;28;20031;-61
2023/07/18 07:49:44;;;;;;;4.03;1.40;;;;;;;;;;5050157;28;20110;-61
2023/07/18 07:52:11;;;;;;;3.00;1.55;;;;;;;;;;5049524;28;20052;-61
2023/07/18 07:54:36;;;;;;;5.25;1.42;;;;;;;;;;5050812;28;20039;-61
2023/07/18 07:57:03;;;;;;;2.67;1.40;;;;;;;;;;5051660;28;20029;-61
2023/07/18 07:59:29;;;;;;;3.33;1.25;;;;;;;;;;5052020;28;20035;-61
2023/07/18 08:01:55;;;;;;;2.97;1.55;;;;;;;;;;5051708;28;20104;-61
2023/07/18 08:04:21;;;;;;;2.47;1.10;;;;;;;;;;5048668;28;20098;-61
2023/07/18 08:06:47;;;;;;;2.63;1.40;;;;;;;;;;5051577;28;20021;-61
2023/07/18 08:09:13;;;;;;;3.17;1.70;;;;;;;;;;5051817;28;20466;-61
2023/07/18 08:11:39;;;;;;;3.55;1.08;;;;;;;;;;5051601;28;20024;-61
2023/07/18 08:14:05;;;;;;;2.22;1.27;;;;;;;;;;5050567;28;20481;-61
2023/07/18 08:16:31;;;;;;;2.22;0.90;;;;;;;;;;5050987;28;20118;-61
2023/07/18 08:18:57;;;;;;;2.50;1.17;;;;;;;;;;5051049;28;20112;-61
2023/07/18 08:21:23;;;;;;;4.95;1.30;;;;;;;;;;5051006;28;20502;-61
2023/07/18 08:23:50;;;;;;;2.25;1.00;;;;;;;;;;5049821;28;20029;-61
2023/07/18 08:26:16;;;;;;;2.28;1.17;;;;;;;;;;5051233;28;20025;-62
2023/07/18 08:28:41;;;;;;;2.33;1.13;;;;;;;;;;5051682;28;20024;-61
2023/07/18 08:31:07;;;;;;;1.90;1.10;;;;;;;;;;5051188;28;20021;-62
2023/07/18 08:33:33;;;;;;;2.58;1.38;;;;;;;;;;5045013;28;20017;-61
2023/07/18 08:35:59;;;;;;;2.58;0.88;;;;;;;;;;5051039;28;20025;-61
2023/07/18 08:38:26;;;;;;;2.35;1.48;;;;;;;;;;5051573;28;20120;-61
2023/07/18 08:40:52;;;;;;;2.03;1.15;;;;;;;;;;5050017;28;20458;-61
2023/07/18 08:43:19;;;;;;;3.58;1.23;;;;;;;;;;5049071;28;20033;-61
2023/07/18 08:45:46;;;;;;;9.65;1.55;;;;;;;;;;5033601;28;20017;-61
2023/07/18 08:48:13;;;;;;;2.20;1.10;;;;;;;;;;5051509;28;20079;-61
2023/07/18 08:50:41;;;;;;;2.42;0.90;;;;;;;;;;5049753;28;20040;-61
2023/07/18 08:53:07;;;;;;;1.95;0.90;;;;;;;;;;5050694;28;20029;-61
2023/07/18 08:55:32;;;;;;;7.50;1.20;;;;;;;;;;5050241;28;20098;-61
2023/07/18 08:58:00;;;;;;;5.53;1.33;;;;;;;;;;5050411;28;20025;-61
2023/07/18 09:00:26;;;;;;;3.20;1.42;;;;;;;;;;5050451;28;20043;-61
2023/07/18 09:02:52;;;;;;;2.28;1.10;;;;;;;;;;5050823;28;20025;-61
2023/07/18 09:05:33;;;;;;;3.70;1.50;;;;;;;;;;5050507;28;20040;-61
2023/07/18 09:08:00;;;;;;;3.40;1.15;;;;;;;;;;5051366;28;20036;-61
2023/07/18 09:10:26;;;;;;;3.10;1.23;;;;;;;;;;5050920;28;20040;-61
2023/07/18 09:12:53;;;;;;;2.75;1.42;;;;;;;;;;5047072;28;20029;-61
2023/07/18 09:15:19;;;;;;;3.22;1.40;;;;;;;;;;5050757;28;20378;-61
2023/07/18 09:17:55;;;;;;;2.03;1.00;;;;;;;;;;5047460;28;20025;-61
2023/07/18 09:20:22;;;;;;;4.05;1.13;;;;;;;;;;5048525;28;20049;-61
2023/07/18 09:22:50;;;;;;;2.95;1.15;;;;;;;;;;5049415;28;20504;-61
2023/07/18 09:25:16;;;;;;;2.15;1.13;;;;;;;;;;5050835;28;20112;-61
2023/07/18 09:27:42;;;;;;;2.42;1.48;;;;;;;;;;5051427;28;20036;-62
2023/07/18 09:30:09;;;;;;;2.80;1.40;;;;;;;;;;5053989;28;20021;-62
2023/07/18 09:32:34;;;;;;;2.35;1.40;;;;;;;;;;5053477;28;20501;-61
2023/07/18 09:35:01;;;;;;;4.20;1.50;;;;;;;;;;5054300;28;20021;-61
2023/07/18 09:37:27;;;;;;;2.95;1.50;;;;;;;;;;5054209;28;20035;-61
2023/07/18 09:39:56;;;;;;;2.45;1.25;;;;;;;;;;5054012;28;20025;-61
2023/07/18 09:42:24;;;;;;;2.45;1.55;;;;;;;;;;5050731;28;20028;-61
2023/07/18 09:44:50;;;;;;;2.40;1.67;;;;;;;;;;5053947;28;20414;-61
2023/07/18 09:47:17;;;;;;;2.90;1.50;;;;;;;;;;5051686;28;20440;-61
2023/07/18 09:49:44;;;;;;;3.28;1.52;;;;;;;;;;5053191;28;20025;-61
2023/07/18 09:52:10;;;;;;;4.78;2.05;;;;;;;;;;5043312;28;20037;-61
2023/07/18 09:54:36;;;;;;;2.67;1.33;;;;;;;;;;5053484;28;20385;-61
2023/07/18 09:57:07;;;;;;;6.15;1.80;;;;;;;;;;5052358;28;20032;-61
2023/07/18 09:59:37;;;;;;;1.83;1.02;;;;;;;;;;5052969;28;20045;-62
2023/07/18 10:02:06;;;;;;;3.00;1.85;;;;;;;;;;5054682;28;20028;-61
2023/07/18 10:04:32;;;;;;;2.03;1.35;;;;;;;;;;5053398;28;20086;-61
2023/07/18 10:07:02;;;;;;;5.00;1.50;;;;;;;;;;5053593;28;20040;-61
2023/07/18 10:09:28;;;;;;;2.72;1.65;;;;;;;;;;5054054;28;20075;-61
2023/07/18 10:12:03;;;;;;;2.72;1.63;;;;;;;;;;5051959;28;20044;-61
2023/07/18 10:14:48;;;;;;;3.22;1.83;;;;;;;;;;5053121;28;20147;-61
2023/07/18 10:17:29;;;;;;;2.45;1.55;;;;;;;;;;5053523;28;20387;-61
2023/07/18 10:19:55;;;;;;;4.60;1.92;;;;;;;;;;5054084;28;20048;-61
2023/07/18 10:22:31;;;;;;;2.95;1.80;;;;;;;;;;5052051;28;20430;-61
2023/07/18 10:25:04;;;;;;;2.80;1.60;;;;;;;;;;5053385;28;20029;-61
2023/07/18 10:27:38;;;;;;;2.70;1.60;;;;;;;;;;5050539;28;20032;-61
2023/07/18 10:30:08;;;;;;;2.10;1.50;;;;;;;;;;5048127;28;20028;-61
2023/07/18 10:32:34;;;;;;;3.58;1.65;;;;;;;;;;5039242;28;20029;-61
2023/07/18 10:35:00;;;;;;;2.70;1.33;;;;;;;;;;5053046;28;20036;-61
2023/07/18 10:37:27;;;;;;;2.88;2.22;;;;;;;;;;5053557;28;20029;-62
2023/07/18 10:39:54;;;;;;;3.38;1.83;;;;;;;;;;5053077;28;20021;-61
2023/07/18 10:42:30;;;;;;;5.78;2.03;;;;;;;;;;5052660;28;20374;-61
2023/07/18 10:45:14;;;;;;;3.47;1.92;;;;;;;;;;5052940;28;20408;-61
2023/07/18 10:47:41;;;;;;;2.95;1.52;;;;;;;;;;5051338;28;20772;-61
2023/07/18 10:50:07;;;;;;;2.33;1.45;;;;;;;;;;5053562;28;20025;-61
2023/07/18 10:52:34;;;;;;;3.33;1.80;;;;;;;;;;5044974;28;20044;-61
2023/07/18 10:55:01;;;;;;;5.43;1.58;;;;;;;;;;5039604;28;20067;-61
2023/07/18 10:57:28;;;;;;;2.92;2.03;;;;;;;;;;5052180;28;20490;-61
2023/07/18 10:59:54;;;;;;;2.78;1.80;;;;;;;;;;5053036;28;20025;-61
2023/07/18 11:02:20;;;;;;;3.30;2.20;;;;;;;;;;5052186;28;20021;-61
2023/07/18 11:04:47;;;;;;;4.57;2.28;;;;;;;;;;5052466;28;20063;-61
2023/07/18 11:07:13;;;;;;;3.20;2.35;;;;;;;;;;5052715;28;20123;-61
2023/07/18 11:09:40;;;;;;;4.72;2.30;;;;;;;;;;5051658;28;20052;-61
2023/07/18 11:12:07;;;;;;;4.15;2.35;;;;;;;;;;5051968;28;20028;-61
2023/07/18 11:14:39;;;;;;;4.22;2.10;;;;;;;;;;5051484;28;20025;-61
2023/07/18 11:17:10;;;;;;;5.95;2.00;;;;;;;;;;5052651;28;20036;-61
2023/07/18 11:19:36;;;;;;;4.70;2.42;;;;;;;;;;5051626;28;20442;-61
2023/07/18 11:22:02;;;;;;;4.97;2.08;;;;;;;;;;5052235;28;20505;-62
2023/07/18 11:24:29;;;;;;;3.00;2.10;;;;;;;;;;5050878;28;20033;-61
2023/07/18 11:27:10;;;;;;;3.55;1.95;;;;;;;;;;5052349;28;20097;-61
2023/07/18 11:29:36;;;;;;;3.85;2.00;;;;;;;;;;5052421;28;20023;-61
2023/07/18 11:32:02;;;;;;;5.18;1.83;;;;;;;;;;5051758;28;20029;-61
2023/07/18 11:34:30;;;;;;;2.35;1.30;;;;;;;;;;5051262;28;20036;-61
2023/07/18 11:36:56;;;;;;;6.20;2.10;;;;;;;;;;5052481;28;20021;-61
2023/07/18 11:39:22;;;;;;;3.38;2.47;;;;;;;;;;5047044;28;20484;-61
2023/07/18 11:41:51;;;;;;;3.08;1.70;;;;;;;;;;5051994;28;20025;-61
2023/07/18 11:44:26;;;;;;;3.33;2.15;;;;;;;;;;5051197;28;20518;-61
2023/07/18 11:46:53;;;;;;;2.08;1.35;;;;;;;;;;5046860;28;20064;-60
2023/07/18 11:49:32;;;;;;;5.53;1.95;;;;;;;;;;5051584;28;20040;-60
2023/07/18 11:51:58;;;;;;;3.35;1.88;;;;;;;;;;5045153;28;20028;-60
2023/07/18 11:54:26;;;;;;;3.58;2.35;;;;;;;;;;5051462;28;20021;-60
2023/07/18 11:56:52;;;;;;;5.18;1.98;;;;;;;;;;5047589;28;20117;-60
2023/07/18 11:59:18;;;;;;;4.20;1.90;;;;;;;;;;5048103;28;20115;-60
2023/07/18 12:01:44;;;;;;;3.58;2.28;;;;;;;;;;5043031;28;20025;-60
2023/07/18 12:04:11;;;;;;;3.13;2.08;;;;;;;;;;5031108;28;20398;-60
2023/07/18 12:06:38;;;;;;;6.13;2.08;;;;;;;;;;5044379;28;20336;-60
2023/07/18 12:09:04;;;;;;;3.08;1.85;;;;;;;;;;5052408;28;20387;-60
2023/07/18 12:11:31;;;;;;;4.57;2.45;;;;;;;;;;5049713;28;20025;-60
2023/07/18 12:13:57;;;;;;;2.67;1.40;;;;;;;;;;5051113;28;20025;-60
2023/07/18 12:16:23;;;;;;;4.63;2.67;;;;;;;;;;5051006;28;20483;-60
2023/07/18 12:18:49;;;;;;;2.55;1.83;;;;;;;;;;5051680;28;20025;-60
2023/07/18 12:21:15;;;;;;;3.30;2.15;;;;;;;;;;5051564;28;20025;-60
2023/07/18 12:23:41;;;;;;;3.53;2.28;;;;;;;;;;5050958;28;20124;-60
2023/07/18 12:26:07;;;;;;;4.95;2.33;;;;;;;;;;5047370;28;20028;-60
2023/07/18 12:28:32;;;;;;;4.97;2.10;;;;;;;;;;5051652;28;20075;-61
2023/07/18 12:30:59;;;;;;;3.38;2.10;;;;;;;;;;5051393;28;20021;-60
2023/07/18 12:33:25;;;;;;;3.22;2.08;;;;;;;;;;5050623;28;20382;-60
2023/07/18 12:35:50;;;;;;;3.67;2.20;;;;;;;;;;5051248;28;20024;-60
2023/07/18 12:38:16;;;;;;;4.13;2.58;;;;;;;;;;5051382;28;20363;-60
2023/07/18 12:40:42;;;;;;;2.25;1.52;;;;;;;;;;5049117;28;20494;-60
2023/07/18 12:43:08;;;;;;;3.67;2.17;;;;;;;;;;5050813;28;20021;-60
2023/07/18 12:45:34;;;;;;;4.65;2.53;;;;;;;;;;5049832;28;20029;-61
2023/07/18 12:48:01;;;;;;;2.95;1.85;;;;;;;;;;5050142;28;20116;-60
2023/07/18 12:50:27;;;;;;;3.53;2.35;;;;;;;;;;5034237;28;20506;-60
2023/07/18 12:52:53;;;;;;;3.28;2.05;;;;;;;;;;5050713;28;20455;-60
2023/07/18 12:55:19;;;;;;;2.42;2.00;;;;;;;;;;5049117;28;20056;-60
2023/07/18 12:57:45;;;;;;;7.53;2.45;;;;;;;;;;5031369;28;20029;-61
2023/07/18 13:00:11;;;;;;;4.68;2.90;;;;;;;;;;5049938;28;20022;-60
2023/07/18 13:02:37;;;;;;;9.77;2.83;;;;;;;;;;5051637;28;20021;-61
2023/07/18 13:05:06;;;;;;;4.55;2.20;;;;;;;;;;5050236;28;20083;-60
2023/07/18 13:07:33;;;;;;;3.28;2.13;;;;;;;;;;5053619;28;20040;-60
2023/07/18 13:09:59;;;;;;;3.15;2.35;;;;;;;;;;5038022;28;20049;-60
2023/07/18 13:12:29;;;;;;;5.50;2.33;;;;;;;;;;5053764;28;20029;-60
2023/07/18 13:14:54;;;;;;;4.53;2.53;;;;;;;;;;5054729;28;20029;-60
2023/07/18 13:17:21;;;;;;;3.17;1.85;;;;;;;;;;5053960;28;20025;-60
2023/07/18 13:19:47;;;;;;;2.72;2.00;;;;;;;;;;5050099;28;20131;-60
2023/07/18 13:22:13;;;;;;;4.07;2.80;;;;;;;;;;5054206;28;20383;-60
2023/07/18 13:24:39;;;;;;;3.42;2.03;;;;;;;;;;5054293;28;20029;-60
2023/07/18 13:27:05;;;;;;;3.17;2.13;;;;;;;;;;5053782;28;20029;-60
2023/07/18 13:29:31;;;;;;;4.68;2.55;;;;;;;;;;5040254;28;20033;-60
2023/07/18 13:31:57;;;;;;;4.60;2.40;;;;;;;;;;5049863;28;20485;-60
2023/07/18 13:34:23;;;;;;;3.30;2.15;;;;;;;;;;5054058;28;20025;-60
2023/07/18 13:36:49;;;;;;;4.18;2.45;;;;;;;;;;5053769;28;20025;-60
2023/07/18 13:39:16;;;;;;;3.17;1.95;;;;;;;;;;5047068;28;20060;-60
2023/07/18 13:41:42;;;;;;;4.32;1.92;;;;;;;;;;5054297;28;20021;-60
2023/07/18 13:44:07;;;;;;;4.13;2.47;;;;;;;;;;5053918;28;20123;-60
2023/07/18 13:46:33;;;;;;;3.15;2.30;;;;;;;;;;5049780;28;20115;-61
2023/07/18 13:49:00;;;;;;;5.15;2.28;;;;;;;;;;5053914;28;20067;-61
2023/07/18 13:51:29;;;;;;;5.93;2.15;;;;;;;;;;5054237;28;20024;-61
2023/07/18 13:53:55;;;;;;;3.92;2.20;;;;;;;;;;5054099;28;20021;-61
2023/07/18 13:56:21;;;;;;;5.55;2.45;;;;;;;;;;5054303;28;20025;-61
2023/07/18 13:58:47;;;;;;;2.70;2.17;;;;;;;;;;5053981;28;20332;-61
2023/07/18 14:01:13;;;;;;;3.25;2.05;;;;;;;;;;5050896;28;20024;-61
2023/07/18 14:03:38;;;;;;;4.43;2.50;;;;;;;;;;5046912;28;20021;-61
2023/07/18 14:06:04;;;;;;;4.45;2.60;;;;;;;;;;5048173;28;20117;-61
2023/07/18 14:08:31;;;;;;;3.80;2.38;;;;;;;;;;5051479;28;20035;-61
2023/07/18 14:10:57;;;;;;;3.80;2.88;;;;;;;;;;5046625;28;20071;-61
2023/07/18 14:13:23;;;;;;;3.28;2.10;;;;;;;;;;5053206;28;20047;-61
2023/07/18 14:15:49;;;;;;;3.45;1.80;;;;;;;;;;5052692;28;20111;-61
2023/07/18 14:18:15;;;;;;;3.58;2.13;;;;;;;;;;5053945;28;20374;-61
2023/07/18 14:20:41;;;;;;;2.92;2.05;;;;;;;;;;5051784;28;20017;-61
2023/07/18 14:23:07;;;;;;;3.20;2.03;;;;;;;;;;5053289;28;20040;-61
2023/07/18 14:25:33;;;;;;;2.55;1.80;;;;;;;;;;5053903;28;20083;-61
2023/07/18 14:27:59;;;;;;;2.97;2.30;;;;;;;;;;5053963;28;20513;-61
2023/07/18 14:30:25;;;;;;;3.53;1.90;;;;;;;;;;5049512;28;20025;-61
2023/07/18 14:32:51;;;;;;;4.20;2.90;;;;;;;;;;5051174;28;20154;-61
2023/07/18 14:35:17;;;;;;;3.63;2.08;;;;;;;;;;5052106;28;20051;-61
2023/07/18 14:37:43;;;;;;;3.45;2.45;;;;;;;;;;5044261;28;20024;-61
2023/07/18 14:40:09;;;;;;;4.30;2.45;;;;;;;;;;5046652;28;20079;-61